CheckWX is a tool to help pilots better visualize weather data.  It is not intended as a substitute for an official pre-flight weather briefing.

21:37:59 UTC

WALL TAF
Sultan Aji Muhamad Sulaiman Airport
Kotamadya Balikpapan, Indonesia
TAF WALL 201700Z 2018/2124 27003KT 9000 FEW020 BECMG 2020/2022 SCT018 BECMG 2023/2101 31005KT BECMG 2103/2105 15003KT PROB30 TEMPO 2106/2109 07008KT 6000 -SHRA BKN018

Mar-20@
18:00 UTC

Mar-20 @ 18:00 UTC

Mar-20@
20:00 UTC

Mar-20 @ 20:00 UTC

TAF WALL 201700Z 2018/2124 27003KT 9000 FEW020

Expired

Wind
  • 270° at 3 KTS
Cloud Levels
  • Few at 2,000' AGL

Mar-20@
20:00 UTC

Mar-20 @ 20:00 UTC

Mar-20@
23:00 UTC

Mar-20 @ 23:00 UTC

BECMG 2020/2022 SCT018

Becoming

Becoming Conditions expected by Wed, Mar 20, 2019 @ 22:00 UTC

Wind
  • 270° at 3 KTS
Cloud Levels
  • Scattered at 1,800' AGL

Mar-20@
23:00 UTC

Mar-20 @ 23:00 UTC

Mar-21@
03:00 UTC

Mar-21 @ 03:00 UTC

BECMG 2023/2101 31005KT

Becoming

Becoming Conditions expected by Thu, Mar 21, 2019 @ 01:00 UTC

Wind
  • 310° at 5 KTS
Cloud Levels
  • Scattered at 1,800' AGL

Mar-21@
03:00 UTC

Mar-21 @ 03:00 UTC

Mar-22@
00:00 UTC

Mar-22 @ 00:00 UTC

BECMG 2103/2105 15003KT

Becoming

Becoming Conditions expected by Thu, Mar 21, 2019 @ 05:00 UTC

Wind
  • 150° at 3 KTS
Cloud Levels
  • Scattered at 1,800' AGL

Mar-21@
06:00 UTC

Mar-21 @ 06:00 UTC

Mar-21@
09:00 UTC

Mar-21 @ 09:00 UTC

PROB30 TEMPO 2106/2109 07008KT 6000 -SHRA BKN018

Temporary - 30% Likelihood

Temporary - 30% Likelihood during this time.

Wind
  • 070° at 8 KTS
Conditions
Light Rain
Cloud Levels
  • Broken at 1,800' AGL